Time;durP1;ratioP1;P1;durP2;ratioP2;P2;SDS_P1;SDS_P2;PMS_P1;PMS_P2;Temp;Humidity;BMP_temperature;BMP_pressure;BME280_temperature;BME280_humidity;BME280_pressure;Samples;Min_cycle;Max_cycle;Signal;HPM_P1;HPM_P2
2022/05/11 00:01:56;;;;;;;14.85;4.57;;;;;;;16.06;62.07;101164.56;5113165;28;20023;-65
2022/05/11 00:04:21;;;;;;;15.95;4.70;;;;;;;16.10;61.89;101163.63;5112416;28;20073;-65
2022/05/11 00:06:49;;;;;;;17.58;4.78;;;;;;;16.04;61.82;101168.13;5112557;28;20024;-65
2022/05/11 00:09:15;;;;;;;16.45;4.63;;;;;;;15.99;62.04;101159.34;5112695;28;20027;-66
2022/05/11 00:11:42;;;;;;;15.93;4.82;;;;;;;15.95;62.08;101159.41;5111946;28;20087;-66
2022/05/11 00:14:08;;;;;;;17.73;4.80;;;;;;;15.95;62.47;101152.28;5111677;28;20027;-64
2022/05/11 00:16:34;;;;;;;19.00;4.72;;;;;;;15.99;61.76;101150.47;5112987;28;20028;-65
2022/05/11 00:18:59;;;;;;;17.73;4.72;;;;;;;16.02;61.95;101147.75;5111813;28;20382;-66
2022/05/11 00:21:24;;;;;;;15.23;4.57;;;;;;;16.06;61.92;101146.78;5112219;28;20027;-65
2022/05/11 00:23:53;;;;;;;18.02;4.75;;;;;;;16.08;61.06;101152.13;5112591;28;20024;-65
2022/05/11 00:26:19;;;;;;;16.95;4.80;;;;;;;16.08;61.13;101144.13;5112691;28;20058;-65
2022/05/11 00:28:45;;;;;;;14.10;4.65;;;;;;;16.08;61.14;101142.34;5112388;28;20020;-65
2022/05/11 00:31:10;;;;;;;17.73;4.70;;;;;;;16.10;61.05;101134.31;5111909;28;20034;-64
2022/05/11 00:33:36;;;;;;;16.88;4.72;;;;;;;16.12;60.77;101137.81;5112509;28;20034;-64
2022/05/11 00:36:02;;;;;;;16.50;4.63;;;;;;;16.12;61.05;101127.16;5122100;28;20083;-65
2022/05/11 00:38:28;;;;;;;13.55;4.32;;;;;;;16.13;61.01;101132.47;5131220;28;20368;-64
2022/05/11 00:40:58;;;;;;;16.33;4.40;;;;;;;16.06;61.12;101124.59;5129780;28;20075;-64
2022/05/11 00:43:38;;;;;;;16.25;4.30;;;;;;;16.02;60.68;101126.44;5117351;28;20020;-64
2022/05/11 00:46:17;;;;;;;16.02;4.50;;;;;;;15.99;60.92;101122.00;5111527;28;20545;-70
2022/05/11 00:51:34;;;;;;;15.15;4.50;;;;;;;15.95;61.07;101114.06;5110768;28;20096;-67
2022/05/11 00:54:00;;;;;;;14.32;4.40;;;;;;;15.96;60.83;101111.38;5112347;28;20144;-67
2022/05/11 00:56:27;;;;;;;15.18;4.63;;;;;;;15.95;60.87;101106.94;5112170;28;20038;-67
2022/05/11 00:59:01;;;;;;;15.77;4.43;;;;;;;15.89;61.81;101107.03;5112178;28;20107;-68
2022/05/11 01:01:26;;;;;;;14.05;4.50;;;;;;;15.85;61.79;101107.97;5109739;28;20023;-69
2022/05/11 01:04:05;;;;;;;13.77;4.13;;;;;;;15.84;61.88;101111.53;5111741;28;20095;-67
2022/05/11 01:06:31;;;;;;;13.98;4.30;;;;;;;15.81;62.25;101106.25;5111634;28;20474;-69
2022/05/11 01:09:00;;;;;;;14.43;4.50;;;;;;;15.80;62.28;101102.72;5111014;28;20337;-66
2022/05/11 01:11:26;;;;;;;18.02;4.65;;;;;;;15.81;62.64;101101.81;5108479;28;20478;-75
2022/05/11 01:13:51;;;;;;;14.88;4.30;;;;;;;15.79;62.53;101092.06;5111203;28;20179;-70
2022/05/11 01:16:17;;;;;;;14.15;4.22;;;;;;;15.77;63.13;101094.72;5112312;28;20102;-78
2022/05/11 01:18:44;;;;;;;14.30;4.10;;;;;;;15.75;63.05;101098.31;5112068;28;20019;-76
2022/05/11 01:21:09;;;;;;;14.80;4.20;;;;;;;15.74;62.95;101084.13;5111459;28;20027;-77
2022/05/11 01:23:40;;;;;;;18.45;4.50;;;;;;;15.71;63.21;101085.91;5111847;28;20069;-78
2022/05/11 01:26:06;;;;;;;12.70;4.07;;;;;;;15.67;64.69;101077.97;5111613;28;20031;-81
2022/05/11 01:28:31;;;;;;;14.25;4.07;;;;;;;15.66;64.43;101084.19;5111551;28;20027;-78
2022/05/11 01:31:07;;;;;;;17.92;4.30;;;;;;;15.65;63.96;101087.78;5111813;28;20028;-81
2022/05/11 01:33:35;;;;;;;15.80;4.13;;;;;;;15.60;64.38;101089.59;5108611;28;20501;-71
2022/05/11 01:36:26;;;;;;;15.30;3.95;;;;;;;15.62;63.76;101084.25;5111739;28;20023;-77
2022/05/11 01:38:55;;;;;;;13.45;3.92;;;;;;;15.60;65.40;101080.75;5111020;28;20473;-73
2022/05/11 01:41:31;;;;;;;14.40;4.35;;;;;;;15.55;66.31;101083.44;5111107;28;20027;-78
2022/05/11 01:43:57;;;;;;;14.50;4.22;;;;;;;15.51;67.24;101079.06;5110665;28;20019;-81
2022/05/11 01:46:22;;;;;;;14.35;4.40;;;;;;;15.48;66.90;101081.78;5111508;28;20038;-79
2022/05/11 01:48:48;;;;;;;13.15;4.18;;;;;;;15.46;66.79;101080.91;5111921;28;20075;-81
2022/05/11 01:51:16;;;;;;;14.30;4.47;;;;;;;15.44;67.68;101077.38;5111068;28;20479;-81
2022/05/11 01:53:43;;;;;;;14.57;4.20;;;;;;;15.46;66.86;101078.25;5115306;28;20027;-80
2022/05/11 01:56:09;;;;;;;14.25;4.22;;;;;;;15.45;66.56;101076.47;5114984;28;20070;-78
2022/05/11 01:58:36;;;;;;;13.65;4.20;;;;;;;15.45;66.56;101076.47;5115503;28;20032;-80
2022/05/11 02:01:02;;;;;;;13.73;4.18;;;;;;;15.46;66.74;101072.91;5114607;28;20034;-77
2022/05/11 02:03:27;;;;;;;16.05;4.25;;;;;;;15.46;66.55;101076.44;5114836;28;20482;-79
2022/05/11 02:08:39;;;;;;;16.20;4.50;;;;;;;15.47;67.25;101067.56;5114933;28;20043;-78
2022/05/11 02:11:06;;;;;;;13.32;4.07;;;;;;;15.48;66.80;101068.47;5114889;28;20028;-79
2022/05/11 02:13:33;;;;;;;16.30;4.15;;;;;;;15.49;66.43;101076.44;5113942;28;20030;-81
2022/05/11 02:15:58;;;;;;;16.08;4.30;;;;;;;15.52;66.35;101064.84;5114912;28;20030;-80
2022/05/11 02:18:23;;;;;;;15.70;4.30;;;;;;;15.55;65.72;101062.13;5114921;28;20378;-81
2022/05/11 02:20:49;;;;;;;15.27;4.30;;;;;;;15.52;65.95;101059.50;5114147;28;20041;-81
2022/05/11 02:23:16;;;;;;;11.95;4.07;;;;;;;15.55;65.23;101064.78;5115014;27;20030;-80
2022/05/11 02:25:44;;;;;;;13.60;4.22;;;;;;;15.55;66.22;101067.44;5114969;28;20123;-78
2022/05/11 02:28:10;;;;;;;13.70;4.20;;;;;;;15.53;66.29;101058.63;5114383;28;20031;-81
2022/05/11 02:30:36;;;;;;;16.08;4.70;;;;;;;15.52;66.13;101063.06;5114657;28;20023;-68
2022/05/11 02:33:01;;;;;;;15.68;4.40;;;;;;;15.48;66.79;101058.69;5115027;28;20377;-78
2022/05/11 02:35:26;;;;;;;13.68;4.20;;;;;;;15.49;66.60;101063.13;5114576;28;20030;-78
2022/05/11 02:37:55;;;;;;;16.58;4.30;;;;;;;15.47;66.24;101061.38;5115008;28;20024;-77
2022/05/11 02:40:24;;;;;;;16.42;4.00;;;;;;;15.48;66.07;101057.81;5114565;28;20474;-74
2022/05/11 02:42:50;;;;;;;14.25;4.10;;;;;;;15.49;66.24;101057.78;5114308;28;20066;-75
2022/05/11 02:45:16;;;;;;;17.30;4.45;;;;;;;15.46;66.56;101059.59;5113471;28;20063;-76
2022/05/11 02:47:43;;;;;;;13.65;3.92;;;;;;;15.48;66.16;101060.47;5112467;28;20088;-75
2022/05/11 02:50:11;;;;;;;13.57;4.15;;;;;;;15.47;66.36;101059.56;5113251;28;20045;-70
2022/05/11 02:52:37;;;;;;;14.82;4.15;;;;;;;15.47;65.85;101058.69;5114363;28;20479;-66
2022/05/11 02:55:03;;;;;;;14.77;4.10;;;;;;;15.46;66.58;101056.94;5114479;28;20049;-65
2022/05/11 02:57:28;;;;;;;14.90;4.22;;;;;;;15.44;66.12;101058.75;5114452;28;20080;-65
2022/05/11 02:59:53;;;;;;;15.98;4.38;;;;;;;15.42;66.58;101058.75;5113928;28;20058;-66
2022/05/11 03:02:20;;;;;;;14.93;4.00;;;;;;;15.40;66.72;101052.56;5116665;28;20036;-64
2022/05/11 03:04:49;;;;;;;13.73;3.83;;;;;;;15.42;66.75;101053.44;5117685;28;20470;-67
2022/05/11 03:07:14;;;;;;;13.23;4.20;;;;;;;15.37;66.80;101052.59;5117669;28;20054;-66
2022/05/11 03:09:39;;;;;;;13.70;4.00;;;;;;;15.39;66.61;101048.16;5115997;28;20032;-68
2022/05/11 03:12:05;;;;;;;16.40;4.03;;;;;;;15.33;67.61;101042.88;5115316;28;20472;-69
2022/05/11 03:14:30;;;;;;;14.68;4.10;;;;;;;15.31;67.16;101042.91;5117737;28;20382;-65
2022/05/11 03:16:56;;;;;;;12.57;3.90;;;;;;;15.31;67.63;101039.38;5116555;27;20027;-66
2022/05/11 03:19:21;;;;;;;14.48;4.00;;;;;;;15.34;67.42;101032.19;5113478;28;20051;-64
2022/05/11 03:21:47;;;;;;;12.93;3.85;;;;;;;15.34;67.23;101034.88;5114055;28;20073;-68
2022/05/11 03:24:13;;;;;;;15.82;4.00;;;;;;;15.34;66.77;101032.19;5114035;28;20531;-70
2022/05/11 03:26:38;;;;;;;15.55;4.00;;;;;;;15.34;67.59;101032.19;5114218;28;20035;-68
2022/05/11 03:29:05;;;;;;;13.07;3.97;;;;;;;15.32;67.46;101022.50;5118319;28;20020;-67
2022/05/11 03:31:33;;;;;;;15.57;4.00;;;;;;;15.32;67.15;101018.03;5128647;28;20020;-65
2022/05/11 03:36:42;;;;;;;13.75;4.10;;;;;;;15.29;67.61;101020.75;5125092;28;20042;-64
2022/05/11 03:39:08;;;;;;;13.13;3.90;;;;;;;15.29;67.45;101019.84;5125525;28;20015;-65
2022/05/11 03:41:33;;;;;;;15.20;4.00;;;;;;;15.26;67.78;101011.88;5126619;28;20028;-64
2022/05/11 03:43:58;;;;;;;13.48;4.00;;;;;;;15.24;67.58;101013.72;5122666;28;20019;-68
2022/05/11 03:46:24;;;;;;;12.52;4.00;;;;;;;15.27;67.34;101011.00;5126947;28;20024;-66
2022/05/11 03:48:49;;;;;;;13.93;3.80;;;;;;;15.25;67.39;101011.03;5127828;28;20032;-65
2022/05/11 03:51:14;;;;;;;14.77;4.00;;;;;;;15.22;68.13;101011.06;5125965;28;20126;-66
2022/05/11 03:53:40;;;;;;;13.50;3.90;;;;;;;15.19;67.84;101005.78;5126660;28;20024;-68
2022/05/11 03:56:05;;;;;;;11.02;3.75;;;;;;;15.17;68.25;101002.22;5127307;28;20032;-67
2022/05/11 03:58:30;;;;;;;14.13;4.15;;;;;;;15.11;68.62;101007.63;5126882;28;20058;-66
2022/05/11 04:00:56;;;;;;;16.50;4.05;;;;;;;15.06;69.23;101009.50;5126038;28;20031;-66
2022/05/11 04:03:22;;;;;;;15.40;4.15;;;;;;;15.04;69.68;101011.28;5123051;28;20011;-66
2022/05/11 04:05:47;;;;;;;15.48;4.20;;;;;;;15.05;69.33;101013.03;5115827;28;20035;-67
2022/05/11 04:08:12;;;;;;;12.60;3.83;;;;;;;15.04;69.74;101006.81;5113247;28;20100;-64
2022/05/11 04:10:38;;;;;;;13.20;3.90;;;;;;;15.05;69.61;100999.72;5112660;27;20026;-63
2022/05/11 04:13:04;;;;;;;14.85;4.05;;;;;;;15.02;69.70;100997.13;5112243;27;20102;-64
2022/05/11 04:15:30;;;;;;;14.20;4.00;;;;;;;14.95;70.40;100999.81;5111753;28;20088;-64
2022/05/11 04:17:56;;;;;;;14.95;3.97;;;;;;;14.88;70.72;101000.81;5110544;28;20020;-65
2022/05/11 04:20:22;;;;;;;15.25;3.92;;;;;;;14.85;70.90;100995.50;5112136;28;20485;-65
2022/05/11 04:22:48;;;;;;;12.40;3.88;;;;;;;14.78;71.55;101001.78;5112464;27;20115;-64
2022/05/11 04:25:15;;;;;;;13.38;3.97;;;;;;;14.75;71.77;100994.75;5112342;28;20066;-64
2022/05/11 04:27:42;;;;;;;12.90;4.05;;;;;;;14.73;72.10;101006.28;5113325;28;20046;-64
2022/05/11 04:30:08;;;;;;;14.55;4.13;;;;;;;14.70;72.71;100999.22;5111950;28;20466;-65
2022/05/11 04:32:33;;;;;;;14.50;3.97;;;;;;;14.68;72.93;100998.34;5112644;28;20042;-65
2022/05/11 04:34:59;;;;;;;15.27;3.97;;;;;;;14.63;73.40;100995.75;5112525;28;20032;-64
2022/05/11 04:37:24;;;;;;;14.48;4.03;;;;;;;14.59;73.85;100995.75;5112073;28;20027;-65
2022/05/11 04:39:50;;;;;;;15.02;4.10;;;;;;;14.59;73.56;100995.75;5112145;28;20436;-65
2022/05/11 04:42:16;;;;;;;14.40;4.10;;;;;;;14.58;73.93;100996.66;5112750;28;20020;-65
2022/05/11 04:44:42;;;;;;;17.35;4.30;;;;;;;14.52;75.09;100999.34;5111534;28;20023;-64
2022/05/11 04:47:12;;;;;;;13.82;4.10;;;;;;;14.50;75.31;101003.81;5112139;27;20134;-64
2022/05/11 04:49:38;;;;;;;14.88;4.13;;;;;;;14.46;75.68;101002.97;5112456;28;20064;-65
2022/05/11 04:52:08;;;;;;;14.98;3.83;;;;;;;14.46;75.65;101005.63;5112420;28;20031;-64
2022/05/11 04:54:39;;;;;;;12.60;4.03;;;;;;;14.50;75.77;101007.34;5111973;28;20035;-66
2022/05/11 04:57:05;;;;;;;13.73;4.30;;;;;;;14.49;76.35;100997.63;5112106;28;20054;-64
2022/05/11 04:59:32;;;;;;;13.57;4.22;;;;;;;14.53;76.13;100995.81;5111126;28;20124;-63
2022/05/11 05:01:59;;;;;;;15.52;4.40;;;;;;;14.54;76.17;100998.44;5112301;28;20027;-64
2022/05/11 05:04:25;;;;;;;15.18;4.22;;;;;;;14.59;76.62;100998.41;5109375;28;20035;-64
2022/05/11 05:06:50;;;;;;;16.00;4.30;;;;;;;14.64;76.39;101001.94;5112103;28;20106;-65
2022/05/11 05:09:15;;;;;;;14.65;4.30;;;;;;;14.68;76.08;100994.78;5111248;28;20518;-64
2022/05/11 05:11:41;;;;;;;15.38;4.40;;;;;;;14.69;76.18;101000.09;5110909;28;20030;-63
2022/05/11 05:14:06;;;;;;;13.90;4.53;;;;;;;14.71;76.03;101005.41;5111858;28;20023;-64
2022/05/11 05:16:33;;;;;;;15.38;4.78;;;;;;;14.76;75.98;100999.13;5112087;28;20482;-63
2022/05/11 05:18:58;;;;;;;16.33;4.45;;;;;;;14.83;75.39;101005.28;5107876;28;20035;-64
2022/05/11 05:21:23;;;;;;;15.27;4.43;;;;;;;14.85;75.88;101011.47;5111332;28;20042;-64
2022/05/11 05:23:49;;;;;;;17.15;4.72;;;;;;;14.91;75.26;101013.19;5111953;28;20027;-64
2022/05/11 05:26:15;;;;;;;16.90;4.65;;;;;;;14.90;76.09;101012.31;5112432;28;20028;-64
2022/05/11 05:31:27;;;;;;;16.30;4.57;;;;;;;14.92;76.08;101017.63;5115604;28;20088;-63
2022/05/11 05:33:59;;;;;;;15.23;4.63;;;;;;;14.94;75.83;101016.72;5115954;28;20019;-63
2022/05/11 05:36:28;;;;;;;14.63;4.45;;;;;;;14.96;75.30;101024.69;5116035;28;20114;-64
2022/05/11 05:38:54;;;;;;;17.17;4.80;;;;;;;14.97;75.83;101013.13;5115079;27;20477;-64
2022/05/11 05:41:20;;;;;;;19.48;5.03;;;;;;;14.98;74.91;101025.53;5115068;28;20032;-64
2022/05/11 05:43:45;;;;;;;16.85;4.88;;;;;;;15.01;75.58;101011.31;5115344;28;20030;-64
2022/05/11 05:46:11;;;;;;;15.20;4.75;;;;;;;15.04;75.32;101027.25;5115004;28;20074;-64
2022/05/11 05:48:37;;;;;;;16.63;4.65;;;;;;;15.03;75.75;101021.06;5114764;28;20042;-66
2022/05/11 05:51:05;;;;;;;15.90;4.57;;;;;;;15.06;74.82;101025.47;5115462;28;20023;-65
2022/05/11 05:53:30;;;;;;;16.05;4.38;;;;;;;15.08;73.86;101023.66;5114254;28;20130;-64
2022/05/11 05:55:55;;;;;;;15.35;4.47;;;;;;;15.07;72.88;101027.19;5115581;27;20016;-64
2022/05/11 05:58:21;;;;;;;16.48;4.57;;;;;;;15.12;73.59;101025.38;5110521;28;20173;-72
2022/05/11 06:00:46;;;;;;;17.88;4.80;;;;;;;15.14;74.24;101031.56;5114738;28;20152;-68
2022/05/11 06:03:12;;;;;;;17.33;4.60;;;;;;;15.18;74.60;101032.41;5113888;28;20027;-69
2022/05/11 06:05:38;;;;;;;16.02;4.60;;;;;;;15.23;73.30;101027.91;5115246;28;20058;-68
2022/05/11 06:08:04;;;;;;;17.95;4.10;;;;;;;15.27;73.44;101024.31;5113446;28;20027;-65
2022/05/11 06:10:29;;;;;;;16.90;4.07;;;;;;;15.27;72.53;101041.16;5115002;28;20024;-64
2022/05/11 06:12:54;;;;;;;16.45;3.90;;;;;;;15.25;71.07;101032.31;5114227;27;20042;-65
2022/05/11 06:15:20;;;;;;;14.65;4.20;;;;;;;15.27;71.52;101019.84;5115046;28;20039;-69
2022/05/11 06:17:45;;;;;;;14.77;4.20;;;;;;;15.30;71.27;101025.19;5115313;27;20020;-70
2022/05/11 06:20:12;;;;;;;13.73;3.75;;;;;;;15.38;68.58;101026.84;5114640;28;20027;-68
2022/05/11 06:22:38;;;;;;;14.20;3.92;;;;;;;15.38;67.28;101029.50;5114536;28;20374;-71
2022/05/11 06:25:04;;;;;;;12.65;3.60;;;;;;;15.39;66.17;101017.94;5114683;27;20024;-70
2022/05/11 06:27:30;;;;;;;15.82;4.03;;;;;;;15.46;68.88;101016.97;5114759;28;20036;-71
2022/05/11 06:30:00;;;;;;;13.52;3.50;;;;;;;15.50;65.00;101024.91;5114071;28;20363;-79
2022/05/11 06:32:26;;;;;;;13.30;3.30;;;;;;;15.52;64.04;101020.44;5115151;28;20474;-71
2022/05/11 06:34:53;;;;;;;12.80;3.42;;;;;;;15.55;62.83;101019.50;5113366;28;20035;-69
2022/05/11 06:37:20;;;;;;;16.75;3.92;;;;;;;15.58;64.10;101024.81;5114281;28;20030;-67
2022/05/11 06:39:45;;;;;;;13.98;3.70;;;;;;;15.60;64.22;101012.34;5113515;28;20034;-67
2022/05/11 06:42:13;;;;;;;13.45;3.40;;;;;;;15.67;64.27;101019.34;5114376;28;20019;-70
2022/05/11 06:44:39;;;;;;;14.05;3.60;;;;;;;15.71;63.46;101029.97;5108756;28;20112;-70
2022/05/11 06:47:05;;;;;;;16.52;3.78;;;;;;;15.77;63.08;101019.19;5112466;28;20106;-71
2022/05/11 06:49:34;;;;;;;16.75;4.05;;;;;;;15.86;64.08;101009.34;5113348;28;20032;-70
2022/05/11 06:52:00;;;;;;;15.93;4.00;;;;;;;15.97;63.11;101009.16;5112582;28;20045;-70
2022/05/11 06:59:56;;;;;;;16.90;4.22;;;;;;;16.28;61.91;101022.03;5110846;28;20047;-69
2022/05/11 07:02:22;;;;;;;17.63;4.03;;;;;;;16.29;62.58;101015.75;5113760;28;20119;-74
2022/05/11 07:04:48;;;;;;;17.17;4.43;;;;;;;16.34;61.41;101008.56;5114123;28;20024;-69
2022/05/11 07:07:14;;;;;;;16.42;4.50;;;;;;;16.46;61.55;101009.28;5114765;28;20038;-70
2022/05/11 07:09:41;;;;;;;15.45;4.32;;;;;;;16.53;62.48;101006.47;5113733;28;20028;-71
2022/05/11 07:12:25;;;;;;;16.05;4.00;;;;;;;16.56;60.08;101014.41;5113037;28;20106;-68
2022/05/11 07:14:54;;;;;;;17.58;4.00;;;;;;;16.63;60.58;101020.53;5112720;28;20020;-72
2022/05/11 07:17:32;;;;;;;14.88;4.30;;;;;;;16.78;60.92;101011.34;5112101;28;20034;-70
2022/05/11 07:19:59;;;;;;;17.52;4.45;;;;;;;16.85;61.05;101021.00;5113312;28;20024;-71
2022/05/11 07:22:25;;;;;;;16.20;4.30;;;;;;;16.89;59.70;101013.84;5113020;28;20052;-71
2022/05/11 07:24:50;;;;;;;17.80;4.10;;;;;;;16.90;59.29;101011.16;5113626;28;20077;-72
2022/05/11 07:27:20;;;;;;;15.02;4.10;;;;;;;16.96;59.53;101010.16;5110320;28;20428;-69
2022/05/11 07:29:45;;;;;;;17.88;3.97;;;;;;;17.07;60.04;101012.63;5113550;28;20093;-68
2022/05/11 07:32:11;;;;;;;15.70;4.00;;;;;;;17.22;57.85;101006.94;5113625;28;20466;-64
2022/05/11 07:34:38;;;;;;;15.93;3.80;;;;;;;17.13;55.63;101016.97;5113739;28;20106;-72
2022/05/11 07:37:04;;;;;;;17.33;3.80;;;;;;;16.99;56.88;101028.78;5113304;28;20501;-70
2022/05/11 07:39:29;;;;;;;15.93;3.88;;;;;;;16.80;56.66;101012.19;5111062;28;20067;-68
2022/05/11 07:41:55;;;;;;;19.02;4.10;;;;;;;16.90;56.79;101021.81;5112557;28;20019;-71
2022/05/11 07:44:21;;;;;;;16.00;3.80;;;;;;;17.00;56.54;101016.31;5112217;28;20110;-69
2022/05/11 07:46:47;;;;;;;16.92;4.00;;;;;;;17.04;55.49;101031.38;5114147;27;20019;-72
2022/05/11 07:49:13;;;;;;;17.30;3.95;;;;;;;16.84;56.33;101010.38;5112336;28;20024;-73
2022/05/11 07:51:41;;;;;;;16.08;3.63;;;;;;;16.95;55.41;101008.41;5113211;28;20023;-72
2022/05/11 07:54:07;;;;;;;18.38;4.05;;;;;;;17.14;56.68;101016.03;5113243;28;20076;-71
2022/05/11 08:02:00;;;;;;;17.95;4.13;;;;;;;17.53;52.65;101027.69;5110974;28;20050;-69
2022/05/11 08:04:26;;;;;;;16.73;4.00;;;;;;;17.48;53.84;101026.03;5113602;28;20095;-73
2022/05/11 08:06:52;;;;;;;17.95;3.78;;;;;;;17.48;53.16;101026.03;5112596;28;20024;-74
2022/05/11 08:09:17;;;;;;;17.30;3.90;;;;;;;17.67;54.08;101039.88;5112040;28;20035;-67
2022/05/11 08:11:42;;;;;;;18.20;4.00;;;;;;;17.52;53.17;101025.06;5111916;28;20051;-69
2022/05/11 08:14:08;;;;;;;17.48;3.85;;;;;;;17.65;51.64;101031.91;5112897;28;20438;-68
2022/05/11 08:16:34;;;;;;;17.73;3.90;;;;;;;17.72;51.13;101025.50;5113216;28;20027;-70
2022/05/11 08:18:59;;;;;;;18.33;4.00;;;;;;;17.97;51.43;101033.00;5109013;28;20521;-66
2022/05/11 08:21:25;;;;;;;18.65;3.90;;;;;;;17.81;51.21;101019.06;5112011;28;20041;-75
2022/05/11 08:23:50;;;;;;;19.30;4.10;;;;;;;17.77;51.54;101026.25;5112202;28;20991;-76
2022/05/11 08:26:16;;;;;;;15.77;3.95;;;;;;;18.19;51.18;101022.66;5112539;28;20038;-64
2022/05/11 08:28:42;;;;;;;21.25;4.05;;;;;;;18.34;50.29;101021.38;5112442;28;20165;-63
2022/05/11 08:33:51;;;;;;;16.73;4.03;;;;;;;18.11;49.95;101011.25;5112225;28;20444;-64
2022/05/11 08:36:22;;;;;;;18.02;4.00;;;;;;;18.06;51.04;101032.75;5112811;28;20695;-64
2022/05/11 08:38:52;;;;;;;16.60;3.83;;;;;;;18.49;49.56;101019.25;5112303;28;20024;-64
2022/05/11 08:41:27;;;;;;;17.63;3.90;;;;;;;18.42;50.07;101011.38;5111976;28;20020;-64
2022/05/11 08:44:00;;;;;;;15.32;4.20;;;;;;;18.35;49.89;101016.91;5110449;28;20074;-64
2022/05/11 08:47:02;;;;;;;16.35;4.18;;;;;;;18.47;50.35;101014.78;5124623;28;20020;-65
2022/05/11 08:49:53;;;;;;;17.13;4.30;;;;;;;18.66;50.09;101017.00;5097421;28;20036;-64
2022/05/11 08:52:33;;;;;;;15.50;3.80;;;;;;;18.72;49.74;101010.59;5080090;28;20024;-65
2022/05/11 08:55:25;;;;;;;16.92;4.00;;;;;;;18.86;49.15;101027.22;5081655;28;20035;-65
2022/05/11 08:57:53;;;;;;;16.90;4.07;;;;;;;18.82;48.85;100990.69;5024717;28;20042;-66
2022/05/11 09:00:19;;;;;;;16.85;4.22;;;;;;;18.56;49.69;101002.97;5025912;28;20034;-65
2022/05/11 09:02:49;;;;;;;18.85;4.45;;;;;;;18.68;49.48;101012.47;5019385;28;20060;-68
2022/05/11 09:05:18;;;;;;;19.42;4.30;;;;;;;18.85;49.80;101011.16;5020532;28;20415;-67
2022/05/11 09:07:45;;;;;;;18.35;4.38;;;;;;;18.74;48.73;101006.97;5023939;28;20136;-67
2022/05/11 09:10:18;;;;;;;18.27;4.30;;;;;;;19.07;49.91;101003.44;5022741;28;20026;-66
2022/05/11 09:12:43;;;;;;;19.77;4.63;;;;;;;19.35;48.36;101000.81;5021994;28;20041;-70
2022/05/11 09:15:09;;;;;;;17.55;4.75;;;;;;;19.36;49.02;100997.22;5023956;28;20132;-70
2022/05/11 09:17:40;;;;;;;19.05;4.63;;;;;;;19.20;49.04;100999.47;5037212;28;20033;-68
2022/05/11 09:20:11;;;;;;;19.50;4.53;;;;;;;19.37;48.04;100995.41;5022473;28;20481;-68
2022/05/11 09:22:40;;;;;;;16.50;4.57;;;;;;;19.23;47.93;101011.91;5020824;28;20053;-66
2022/05/11 09:25:24;;;;;;;17.52;4.63;;;;;;;18.61;49.04;101003.75;5024247;28;20469;-65
2022/05/11 09:27:51;;;;;;;19.17;4.50;;;;;;;18.73;49.81;100981.13;5069090;28;20119;-68
2022/05/11 09:30:21;;;;;;;21.55;5.10;;;;;;;19.13;48.58;100993.44;5067166;28;20032;-71
2022/05/11 09:32:47;;;;;;;19.45;5.10;;;;;;;19.05;48.21;100997.25;5067264;28;20457;-70
2022/05/11 09:35:39;;;;;;;19.98;4.95;;;;;;;19.36;48.29;100994.53;5092355;28;20031;-70
2022/05/11 09:38:16;;;;;;;18.30;4.78;;;;;;;20.77;47.13;100981.97;5099446;28;20035;-68
2022/05/11 09:40:57;;;;;;;18.52;4.93;;;;;;;20.96;44.31;100993.78;5103073;28;20119;-73
2022/05/11 09:43:52;;;;;;;19.15;5.20;;;;;;;20.65;45.67;100985.91;5100312;28;20038;-71
2022/05/11 09:46:26;;;;;;;17.92;5.07;;;;;;;22.01;42.81;100981.69;5101936;28;20032;-63
2022/05/11 09:49:01;;;;;;;17.13;4.30;;;;;;;22.53;41.32;100988.53;5102676;28;20039;-70
2022/05/11 09:51:35;;;;;;;19.10;4.60;;;;;;;22.31;40.80;100989.44;5101427;28;20114;-69
2022/05/11 09:54:00;;;;;;;17.60;4.30;;;;;;;23.20;40.58;100981.97;5102838;28;20027;-66
2022/05/11 09:56:33;;;;;;;15.18;4.03;;;;;;;23.68;39.00;100975.19;5098498;28;20024;-66
2022/05/11 09:59:22;;;;;;;16.85;4.45;;;;;;;24.02;38.95;100984.34;5102590;28;20467;-64
2022/05/11 10:01:51;;;;;;;17.48;4.10;;;;;;;24.18;37.54;100983.59;5099749;28;20482;-69
2022/05/11 10:04:24;;;;;;;17.70;4.30;;;;;;;24.69;37.09;100972.91;5108280;28;20065;-68
2022/05/11 10:06:52;;;;;;;16.05;4.13;;;;;;;25.15;34.83;100986.66;5109273;28;20035;-69
2022/05/11 10:09:26;;;;;;;16.65;4.55;;;;;;;25.03;35.59;100988.22;5110831;28;20359;-69
2022/05/11 10:11:52;;;;;;;16.45;4.40;;;;;;;25.05;35.19;100983.56;5110807;28;20020;-69
2022/05/11 10:23:08;;;;;;;18.30;4.47;;;;;;;25.88;33.97;100979.94;5113157;28;20386;-65
2022/05/11 10:25:42;;;;;;;19.23;4.57;;;;;;;25.30;34.87;100976.81;5113224;28;20046;-65
2022/05/11 10:28:44;;;;;;;17.45;4.35;;;;;;;25.34;36.35;100964.03;5114744;28;20389;-65
2022/05/11 10:31:36;;;;;;;;;;;;;;;26.31;34.02;100971.13;5115132;28;20070;-66
2022/05/11 10:34:16;;;;;;;15.90;3.88;;;;;;;26.50;33.99;100949.22;5110107;28;20366;-66
2022/05/11 10:37:07;;;;;;;16.27;4.40;;;;;;;25.98;34.02;100945.03;5108686;28;20052;-68
2022/05/11 10:40:09;;;;;;;17.05;4.65;;;;;;;26.33;34.86;100942.09;5105075;28;20035;-69
2022/05/11 10:43:16;;;;;;;17.75;4.20;;;;;;;26.68;32.32;100945.41;5113822;28;20031;-67
2022/05/11 10:45:57;;;;;;;17.65;4.10;;;;;;;26.66;33.26;100939.16;5113802;28;20028;-70
2022/05/11 10:48:38;;;;;;;16.73;3.80;;;;;;;27.55;32.23;100939.97;5109878;28;20043;-64
2022/05/11 10:51:15;;;;;;;18.48;4.30;;;;;;;27.08;32.16;100933.91;5106065;28;20161;-67
2022/05/11 10:53:52;;;;;;;18.50;4.30;;;;;;;26.89;32.41;100939.63;5108106;28;20528;-70
2022/05/11 10:56:39;;;;;;;19.10;4.97;;;;;;;26.87;32.90;100946.97;5114663;28;20032;-69
2022/05/11 10:59:22;;;;;;;16.65;4.65;;;;;;;26.41;33.39;100940.69;5111661;28;20177;-75
2022/05/11 11:02:13;;;;;;;17.30;4.60;;;;;;;26.39;33.59;100934.50;5104843;28;20028;-71
2022/05/11 11:05:06;;;;;;;18.20;4.47;;;;;;;27.07;32.89;100932.16;5102738;28;20024;-77
2022/05/11 11:07:52;;;;;;;18.67;4.68;;;;;;;27.49;31.56;100933.09;5113027;28;20038;-75
2022/05/11 11:10:26;;;;;;;18.10;4.90;;;;;;;27.87;31.74;100926.09;5109886;28;20111;-72
2022/05/11 11:13:12;;;;;;;16.23;3.85;;;;;;;29.01;28.63;100923.69;5113462;28;20030;-66
2022/05/11 11:15:42;;;;;;;16.95;3.80;;;;;;;28.31;30.42;100920.38;5104916;28;20122;-72
2022/05/11 11:18:11;;;;;;;17.08;4.05;;;;;;;28.39;30.08;100928.00;5110764;28;20024;-73
2022/05/11 11:20:40;;;;;;;14.02;4.07;;;;;;;28.01;29.79;100945.09;5110692;28;20379;-76
2022/05/11 11:23:17;;;;;;;18.42;4.20;;;;;;;27.24;31.71;100926.50;5112165;28;20034;-68
2022/05/11 11:25:52;;;;;;;18.73;4.10;;;;;;;26.78;31.94;100907.75;5108393;28;20474;-72
2022/05/11 11:28:27;;;;;;;14.73;3.75;;;;;;;27.65;31.14;100920.28;5105945;28;20468;-81
2022/05/11 11:30:58;;;;;;;16.10;4.20;;;;;;;28.50;29.77;100908.22;5111594;28;20027;-78
2022/05/11 11:33:28;;;;;;;12.95;3.83;;;;;;;28.84;29.35;100914.88;5112058;28;20042;-71
2022/05/11 11:36:14;;;;;;;18.05;4.43;;;;;;;28.82;29.53;100908.69;5111296;28;20478;-77
2022/05/11 11:38:40;;;;;;;16.27;3.78;;;;;;;28.09;28.74;100926.44;5110825;28;20062;-79
2022/05/11 11:41:16;;;;;;;14.33;3.60;;;;;;;27.78;28.43;100916.72;5111920;28;20102;-72
2022/05/11 11:43:50;;;;;;;16.52;4.40;;;;;;;27.43;28.54;100893.66;5111656;28;21263;-78
2022/05/11 11:46:41;;;;;;;17.58;3.72;;;;;;;28.02;29.49;100891.63;5112291;28;20424;-65
2022/05/11 11:49:30;;;;;;;18.80;3.70;;;;;;;28.69;27.81;100899.66;5112346;28;20131;-66
2022/05/11 11:51:58;;;;;;;16.77;3.80;;;;;;;28.29;27.53;100899.72;5101241;28;20032;-67
2022/05/11 11:54:30;;;;;;;16.75;3.50;;;;;;;28.26;28.26;100891.78;5115552;28;20034;-64
2022/05/11 11:56:58;;;;;;;14.52;3.60;;;;;;;28.78;28.08;100901.72;5127556;28;20027;-65
2022/05/11 11:59:23;;;;;;;13.32;3.53;;;;;;;29.45;28.07;100895.06;5128283;28;20141;-65
2022/05/11 12:01:51;;;;;;;16.00;3.70;;;;;;;29.51;25.77;100896.47;5120605;28;20393;-65